Time;durP1;ratioP1;P1;durP2;ratioP2;P2;SDS_P1;SDS_P2;PMS_P1;PMS_P2;Temp;Humidity;BMP_temperature;BMP_pressure;BME280_temperature;BME280_humidity;BME280_pressure;Samples;Min_cycle;Max_cycle;Signal;HPM_P1;HPM_P2
2023/11/02 00:09:39;;;;;;;6.70;3.90;;;;;;;10.19;72.22;99999.25;107889;1256;60453;-72
2023/11/02 00:12:39;;;;;;;6.50;3.80;;;;;;;10.15;72.72;99996.65;107929;1257;71617;-72
2023/11/02 00:15:36;;;;;;;5.50;3.90;;;;;;;10.56;71.67;99987.86;107877;1257;71568;-72
2023/11/02 02:42:43;;;;;;;5.00;3.50;;;;;;;9.02;74.02;100048.41;107670;1257;71167;-72
2023/11/02 02:45:43;;;;;;;5.10;3.10;;;;;;;8.98;74.11;100051.42;107673;1260;62187;-72
2023/11/02 02:48:41;;;;;;;4.40;3.00;;;;;;;8.95;73.97;100053.44;107835;1257;60341;-73
2023/11/02 02:51:42;;;;;;;4.70;3.00;;;;;;;8.88;74.02;100055.27;107782;1261;72001;-72
2023/11/02 02:54:46;;;;;;;4.20;3.10;;;;;;;8.83;74.12;100057.58;107599;1257;72746;-72
2023/11/02 02:57:48;;;;;;;5.20;3.30;;;;;;;8.77;74.09;100062.50;107723;1256;72797;-72
2023/11/02 03:04:14;;;;;;;5.10;3.30;;;;;;;8.64;74.11;100065.02;107788;1256;62209;-73
2023/11/02 03:07:01;;;;;;;4.10;2.60;;;;;;;8.59;74.14;100069.30;107812;1257;73900;-73
2023/11/02 03:10:04;;;;;;;5.20;3.00;;;;;;;8.54;74.14;100074.38;107851;1257;71297;-72
2023/11/02 03:13:06;;;;;;;3.60;2.80;;;;;;;8.50;74.19;100080.78;107826;1260;72538;-73
2023/11/02 03:15:57;;;;;;;4.10;2.70;;;;;;;8.44;74.20;100085.68;108060;1258;62011;-73
2023/11/02 03:18:47;;;;;;;6.90;2.70;;;;;;;8.38;74.18;100086.80;107937;1257;60434;-73
2023/11/02 03:21:31;;;;;;;4.70;3.20;;;;;;;8.29;74.24;100081.75;108106;1256;73650;-73
2023/11/02 03:24:20;;;;;;;5.70;3.20;;;;;;;8.18;74.49;100085.75;107926;1260;72806;-73
2023/11/02 03:27:11;;;;;;;4.30;3.00;;;;;;;8.13;74.58;100090.83;108095;1259;72711;-71
2023/11/02 03:30:35;;;;;;;4.60;2.90;;;;;;;8.05;74.65;100088.52;108210;1255;61886;-72
2023/11/02 03:34:10;;;;;;;4.50;2.80;;;;;;;7.99;74.75;100091.43;107963;1257;60251;-73
2023/11/02 03:37:30;;;;;;;5.00;2.80;;;;;;;7.93;74.78;100092.31;107943;1256;74758;-72
2023/11/02 03:40:44;;;;;;;5.10;2.80;;;;;;;7.88;74.84;100093.48;108064;1256;72746;-72
2023/11/02 03:43:53;;;;;;;5.30;3.20;;;;;;;7.84;74.90;100092.86;108089;1257;72769;-72
2023/11/02 03:47:28;;;;;;;5.70;3.00;;;;;;;7.78;74.93;100098.91;107976;1259;63782;-73
2023/11/02 03:50:47;;;;;;;4.70;2.80;;;;;;;7.71;74.94;100097.52;107891;1255;60324;-73
2023/11/02 03:54:02;;;;;;;5.50;3.00;;;;;;;7.69;74.99;100099.67;108120;1259;74785;-73
2023/11/02 03:57:10;;;;;;;4.80;2.80;;;;;;;7.66;74.87;100102.61;108084;1257;71538;-72
2023/11/02 04:00:20;;;;;;;4.60;2.90;;;;;;;7.64;74.84;100107.39;108100;1258;72471;-72
2023/11/02 04:03:20;;;;;;;4.50;2.60;;;;;;;7.62;74.74;100107.83;108047;1257;61775;-73
2023/11/02 04:06:28;;;;;;;4.60;3.00;;;;;;;7.59;74.60;100113.87;107983;1257;60776;-73
2023/11/02 04:09:28;;;;;;;4.20;2.40;;;;;;;7.57;74.70;100113.34;108067;1259;73056;-72
2023/11/02 04:12:39;;;;;;;4.70;2.60;;;;;;;7.56;74.63;100114.66;107923;1257;73492;-73
2023/11/02 04:15:39;;;;;;;4.40;2.70;;;;;;;7.55;74.51;100115.29;108110;1256;73703;-71
2023/11/02 04:18:38;;;;;;;4.30;2.50;;;;;;;7.55;74.28;100112.59;108004;1256;63053;-73
2023/11/02 04:21:39;;;;;;;5.30;3.20;;;;;;;7.51;74.21;100111.00;108020;1255;61352;-72
2023/11/02 04:24:28;;;;;;;4.90;2.80;;;;;;;7.48;74.06;100110.85;107857;1258;73885;-72
2023/11/02 04:26:56;;;;;;;4.20;2.90;;;;;;;7.42;74.20;100112.02;107953;1256;72567;-73
2023/11/02 04:29:22;;;;;;;4.90;3.00;;;;;;;7.37;74.19;100108.64;107963;1256;70453;-72
2023/11/02 04:31:49;;;;;;;8.60;3.30;;;;;;;7.34;74.14;100111.63;107985;1256;61801;-73
2023/11/02 04:34:16;;;;;;;4.30;2.60;;;;;;;7.30;74.26;100111.91;107909;1257;60332;-72
2023/11/02 04:36:43;;;;;;;6.60;2.70;;;;;;;7.25;74.31;100113.44;107930;1256;73651;-72
2023/11/02 04:39:10;;;;;;;7.50;3.00;;;;;;;7.21;74.43;100118.38;108002;1257;71171;-72
2023/11/02 04:41:38;;;;;;;3.80;2.80;;;;;;;7.16;74.46;100117.73;107899;1256;72738;-71
2023/11/02 04:44:05;;;;;;;4.20;2.80;;;;;;;7.12;74.59;100118.95;107974;1257;60936;-72
2023/11/02 04:46:32;;;;;;;4.10;2.70;;;;;;;7.08;74.61;100114.73;107854;1256;60271;-72
2023/11/02 04:48:58;;;;;;;5.90;2.60;;;;;;;7.05;74.61;100120.27;107953;1256;73056;-72
2023/11/02 04:51:25;;;;;;;4.60;3.20;;;;;;;7.03;74.72;100119.08;107961;1256;72766;-73
2023/11/02 04:53:52;;;;;;;6.50;3.00;;;;;;;7.00;74.82;100127.17;107789;1256;72694;-72
2023/11/02 04:56:19;;;;;;;4.30;2.80;;;;;;;6.98;74.86;100129.37;108414;1256;61830;-72
2023/11/02 04:58:45;;;;;;;5.60;2.80;;;;;;;6.97;74.83;100129.51;108045;1256;60277;-72
2023/11/02 05:01:14;;;;;;;5.10;3.00;;;;;;;6.96;74.87;100134.21;107957;1256;74018;-73
2023/11/02 05:03:41;;;;;;;4.20;2.90;;;;;;;6.95;74.84;100136.02;107903;1256;71522;-72
2023/11/02 05:06:08;;;;;;;6.00;3.00;;;;;;;6.93;74.84;100140.70;107992;1260;72360;-72
2023/11/02 05:08:35;;;;;;;4.40;3.00;;;;;;;6.93;74.91;100147.92;107848;1256;61789;-69
2023/11/02 05:11:02;;;;;;;4.60;3.10;;;;;;;6.93;74.99;100154.52;107893;1256;60378;-73
2023/11/02 05:13:29;;;;;;;4.80;2.90;;;;;;;6.96;75.10;100155.41;107866;1256;74100;-73
2023/11/02 05:15:58;;;;;;;4.70;3.00;;;;;;;6.98;75.14;100153.27;107882;1256;72522;-72
2023/11/02 05:18:25;;;;;;;5.20;2.90;;;;;;;6.96;75.15;100155.52;107919;1256;72688;-72
2023/11/02 05:20:57;;;;;;;4.10;2.80;;;;;;;6.94;75.31;100158.17;107823;1256;60817;-72
2023/11/02 05:23:24;;;;;;;;;;;;;;;6.93;75.33;100165.23;108144;1256;59803;-73
2023/11/02 05:25:50;;;;;;;4.80;3.00;;;;;;;6.93;75.38;100164.44;107973;1256;73896;-73
2023/11/02 05:28:17;;;;;;;4.60;2.80;;;;;;;6.95;75.28;100173.92;107867;1256;72701;-73
2023/11/02 05:30:44;;;;;;;4.20;3.00;;;;;;;6.93;75.24;100177.89;107798;1256;72717;-72
2023/11/02 05:33:10;;;;;;;3.60;2.60;;;;;;;6.92;75.24;100175.84;107755;1256;60613;-72
2023/11/02 05:35:37;;;;;;;5.50;3.20;;;;;;;6.92;75.19;100184.77;107904;1256;60316;-73
2023/11/02 05:38:04;;;;;;;4.80;3.40;;;;;;;6.93;75.21;100184.09;107909;1256;73660;-72
2023/11/02 05:40:31;;;;;;;4.20;2.90;;;;;;;6.95;75.18;100186.67;107791;1256;72520;-72
2023/11/02 05:42:58;;;;;;;3.80;2.80;;;;;;;6.98;75.16;100190.65;107898;1256;72730;-73
2023/11/02 05:45:24;;;;;;;5.60;3.20;;;;;;;7.01;75.17;100190.71;107861;1256;62162;-73
2023/11/02 05:47:51;;;;;;;4.70;2.80;;;;;;;7.07;75.20;100197.75;107853;1256;60191;-72
2023/11/02 05:50:18;;;;;;;4.50;2.90;;;;;;;7.14;75.21;100194.94;108335;1256;73801;-73
2023/11/02 05:52:46;;;;;;;4.20;3.00;;;;;;;7.19;75.11;100200.32;107889;1256;72964;-74
2023/11/02 05:55:13;;;;;;;4.50;2.90;;;;;;;7.21;74.86;100206.30;108139;1258;72804;-72
2023/11/02 05:57:41;;;;;;;4.60;2.80;;;;;;;7.23;74.69;100207.08;107941;1256;61751;-74
2023/11/02 06:00:10;;;;;;;4.60;2.90;;;;;;;7.27;74.62;100208.98;107969;1256;60400;-73
2023/11/02 06:02:38;;;;;;;5.30;3.10;;;;;;;7.29;74.22;100212.20;108090;1256;73864;-71
2023/11/02 06:05:06;;;;;;;4.40;3.20;;;;;;;7.30;73.83;100209.83;107834;1257;73145;-73
2023/11/02 06:07:33;;;;;;;8.00;3.30;;;;;;;7.33;73.67;100208.48;107928;1256;72858;-72
2023/11/02 06:10:00;;;;;;;5.10;2.90;;;;;;;7.38;73.61;100208.55;107901;1256;60766;-73
2023/11/02 06:12:27;;;;;;;4.80;3.30;;;;;;;7.46;73.35;100208.56;107906;1256;60219;-71
2023/11/02 06:14:54;;;;;;;4.10;3.00;;;;;;;7.54;73.36;100209.05;107863;1260;72884;-74
2023/11/02 06:17:22;;;;;;;4.90;3.20;;;;;;;7.63;73.11;100212.71;107948;1256;71496;-74
2023/11/02 06:19:49;;;;;;;5.70;3.30;;;;;;;7.73;73.05;100213.92;107863;1256;70894;-74
2023/11/02 06:22:18;;;;;;;9.20;3.50;;;;;;;7.86;72.83;100213.39;107890;1256;60432;-72
2023/11/02 06:24:45;;;;;;;6.30;4.10;;;;;;;7.95;72.24;100213.34;107941;1256;59011;-72
2023/11/02 06:27:13;;;;;;;5.40;3.90;;;;;;;8.03;71.40;100213.81;107872;1256;73719;-73
2023/11/02 06:29:40;;;;;;;5.90;3.60;;;;;;;8.08;70.91;100213.08;107836;1256;72818;-73
2023/11/02 06:32:06;;;;;;;4.90;3.60;;;;;;;8.15;70.61;100210.02;107928;1256;71724;-74
2023/11/02 06:34:37;;;;;;;5.10;3.60;;;;;;;8.22;70.39;100210.94;107867;1260;61674;-71
2023/11/02 06:37:08;;;;;;;5.00;3.40;;;;;;;8.25;70.23;100211.19;107888;1256;60312;-72
2023/11/02 06:39:35;;;;;;;5.40;3.20;;;;;;;8.28;70.26;100210.57;107951;1256;73746;-73
2023/11/02 06:42:03;;;;;;;8.80;4.00;;;;;;;8.33;69.94;100211.70;107861;1256;72703;-73
2023/11/02 06:44:30;;;;;;;5.50;3.60;;;;;;;8.38;69.77;100210.08;107855;1256;72607;-72
2023/11/02 06:46:57;;;;;;;5.40;3.30;;;;;;;8.43;69.40;100211.77;107929;1256;60432;-72
2023/11/02 06:49:24;;;;;;;6.00;4.10;;;;;;;8.45;69.30;100216.38;108165;1256;60188;-74
2023/11/02 06:51:51;;;;;;;5.60;3.70;;;;;;;8.54;69.29;100216.95;107862;1256;73979;-72
2023/11/02 06:54:18;;;;;;;6.50;3.40;;;;;;;8.65;69.03;100212.05;107911;1256;71269;-72
2023/11/02 06:56:45;;;;;;;5.30;3.50;;;;;;;8.77;68.95;100213.05;107884;1256;72649;-73
2023/11/02 06:59:13;;;;;;;6.20;3.30;;;;;;;8.84;68.75;100215.31;107901;1256;62096;-73
2023/11/02 07:01:41;;;;;;;7.10;3.30;;;;;;;8.92;68.52;100209.94;107902;1256;60326;-75
2023/11/02 07:04:08;;;;;;;4.60;3.20;;;;;;;9.03;68.26;100204.70;107975;1256;73895;-73
2023/11/02 07:06:34;;;;;;;4.10;2.90;;;;;;;9.13;68.04;100206.73;107921;1257;72915;-73
2023/11/02 07:09:01;;;;;;;5.80;3.70;;;;;;;9.22;67.56;100211.38;107911;1256;72706;-73
2023/11/02 07:11:29;;;;;;;6.30;3.10;;;;;;;9.30;67.13;100216.23;107917;1256;62025;-73
2023/11/02 07:13:57;;;;;;;7.20;3.30;;;;;;;9.35;66.79;100213.39;107994;1256;60271;-73
2023/11/02 07:16:24;;;;;;;4.70;3.00;;;;;;;9.42;66.33;100209.64;107934;1256;72900;-73
2023/11/02 07:18:50;;;;;;;4.70;3.00;;;;;;;9.49;66.10;100214.43;107976;1256;71469;-72
2023/11/02 07:21:17;;;;;;;5.10;3.30;;;;;;;9.51;65.72;100213.86;107984;1256;72670;-73
2023/11/02 07:23:46;;;;;;;6.20;3.50;;;;;;;9.59;65.48;100210.48;108032;1256;60518;-73
2023/11/02 07:26:13;;;;;;;5.60;3.10;;;;;;;9.68;65.17;100208.84;107940;1256;60270;-73
2023/11/02 07:28:40;;;;;;;5.10;3.20;;;;;;;9.81;64.96;100208.46;107968;1256;72934;-73
2023/11/02 07:31:07;;;;;;;4.90;3.30;;;;;;;9.95;64.58;100209.20;107899;1256;72798;-72
2023/11/02 07:33:40;;;;;;;4.80;3.10;;;;;;;9.99;64.44;100206.29;107921;1256;72543;-73
2023/11/02 07:36:13;;;;;;;5.10;3.10;;;;;;;10.10;63.81;100204.67;107939;1256;62295;-72
2023/11/02 07:38:52;;;;;;;6.00;3.20;;;;;;;10.22;63.62;100205.63;107931;1256;60282;-74
2023/11/02 07:41:20;;;;;;;4.80;3.10;;;;;;;10.34;63.42;100207.39;107976;1256;72872;-74
2023/11/02 07:43:47;;;;;;;4.90;3.40;;;;;;;10.44;63.11;100201.91;107927;1256;72556;-73
2023/11/02 07:46:13;;;;;;;5.40;3.00;;;;;;;10.50;62.45;100199.20;107816;1256;72231;-74
2023/11/02 07:48:40;;;;;;;10.90;3.90;;;;;;;10.55;62.06;100200.70;107904;1256;60472;-72
2023/11/02 07:51:07;;;;;;;6.40;3.00;;;;;;;10.61;62.03;100196.39;107904;1256;60188;-71
2023/11/02 07:53:34;;;;;;;5.20;2.80;;;;;;;10.74;62.04;100201.84;107998;1256;72542;-72
2023/11/02 07:56:01;;;;;;;4.80;2.90;;;;;;;10.87;61.70;100204.78;107964;1256;72786;-75
2023/11/02 07:58:28;;;;;;;5.80;3.20;;;;;;;10.93;61.41;100207.41;107881;1256;72640;-73
2023/11/02 08:00:55;;;;;;;4.80;3.20;;;;;;;11.00;61.13;100209.16;108130;1256;60336;-74
2023/11/02 08:03:21;;;;;;;5.80;3.00;;;;;;;11.11;61.23;100208.30;107955;1256;60333;-73
2023/11/02 08:05:48;;;;;;;4.40;3.10;;;;;;;11.19;60.69;100210.54;107894;1256;73991;-74
2023/11/02 08:08:16;;;;;;;6.40;3.10;;;;;;;11.30;60.56;100212.60;107957;1256;72750;-73
2023/11/02 08:10:42;;;;;;;4.90;3.40;;;;;;;11.38;60.22;100212.33;107817;1256;72475;-74
2023/11/02 08:13:09;;;;;;;5.40;2.90;;;;;;;11.46;59.75;100214.23;107918;1256;60349;-75
2023/11/02 08:15:36;;;;;;;6.10;3.20;;;;;;;11.52;59.54;100210.80;107964;1256;60425;-75
2023/11/02 08:18:03;;;;;;;4.50;2.90;;;;;;;11.56;59.27;100207.48;107830;1256;71335;-75
2023/11/02 08:20:30;;;;;;;5.90;3.10;;;;;;;11.60;59.09;100210.35;107956;1260;72683;-74
2023/11/02 08:22:57;;;;;;;4.20;3.00;;;;;;;11.64;58.81;100212.06;107902;1258;72395;-75
2023/11/02 08:25:47;;;;;;;3.50;2.60;;;;;;;11.67;58.64;100214.30;107609;1260;10002359;-73
2023/11/02 08:28:17;;;;;;;5.80;2.70;;;;;;;11.75;58.85;100209.28;100251;1256;10001981;-73
2023/11/02 08:30:44;;;;;;;5.00;2.90;;;;;;;11.86;58.71;100212.00;107769;1256;73851;-73
2023/11/02 08:33:11;;;;;;;4.10;2.70;;;;;;;11.94;58.24;100212.77;107771;1257;72030;-73
2023/11/02 08:35:38;;;;;;;7.70;2.90;;;;;;;12.04;58.33;100213.16;107692;1260;72401;-72
2023/11/02 08:38:05;;;;;;;5.40;3.00;;;;;;;12.14;58.00;100213.77;107737;1258;61688;-72
2023/11/02 08:40:32;;;;;;;4.70;2.90;;;;;;;12.20;57.72;100214.74;107700;1256;61577;-72
2023/11/02 08:43:00;;;;;;;5.00;2.80;;;;;;;12.32;57.67;100218.75;107872;1255;73907;-72
2023/11/02 08:45:26;;;;;;;4.00;2.80;;;;;;;12.41;57.43;100213.83;107854;1256;71796;-71
2023/11/02 08:47:53;;;;;;;4.00;2.60;;;;;;;12.48;57.39;100214.42;107857;1256;72539;-74
2023/11/02 08:50:20;;;;;;;3.90;2.40;;;;;;;12.56;57.51;100211.74;107876;1256;60303;-72
2023/11/02 08:52:47;;;;;;;4.30;2.50;;;;;;;12.68;57.25;100217.45;107836;1255;60429;-72
2023/11/02 08:55:14;;;;;;;5.80;2.90;;;;;;;12.77;56.84;100215.67;107704;1256;74882;-74
2023/11/02 08:57:41;;;;;;;3.70;2.40;;;;;;;12.84;56.89;100207.89;107687;1256;72463;-72
2023/11/02 09:00:09;;;;;;;4.10;2.60;;;;;;;12.96;56.67;100207.21;108252;1256;72517;-72
2023/11/02 09:02:36;;;;;;;4.10;2.70;;;;;;;12.99;55.74;100203.02;107709;1259;60569;-72
2023/11/02 09:05:03;;;;;;;4.70;2.60;;;;;;;12.95;55.66;100201.44;107643;1256;60138;-72
2023/11/02 09:07:31;;;;;;;4.40;2.50;;;;;;;12.92;55.83;100196.30;107638;1260;73970;-73
2023/11/02 09:09:58;;;;;;;4.60;2.40;;;;;;;12.97;56.02;100190.91;107683;1256;74285;-74
2023/11/02 09:12:25;;;;;;;4.60;2.30;;;;;;;13.07;56.04;100188.92;107730;1256;72828;-72
2023/11/02 09:14:52;;;;;;;3.90;2.50;;;;;;;13.18;55.97;100183.63;107744;1256;59255;-72
2023/11/02 09:17:18;;;;;;;4.40;2.80;;;;;;;13.30;55.61;100185.31;107725;1256;60502;-74
2023/11/02 09:19:45;;;;;;;4.40;2.70;;;;;;;13.38;54.95;100179.23;107717;1256;74193;-73
2023/11/02 09:22:12;;;;;;;4.20;2.70;;;;;;;13.39;54.62;100176.36;107770;1256;73203;-72
2023/11/02 09:24:39;;;;;;;4.60;2.90;;;;;;;13.43;54.76;100180.41;107787;1256;72430;-73
2023/11/02 09:27:07;;;;;;;4.60;2.70;;;;;;;13.48;54.79;100177.39;107852;1256;60318;-73
2023/11/02 09:29:34;;;;;;;4.50;3.10;;;;;;;13.55;54.99;100172.45;107877;1256;60280;-72
2023/11/02 09:32:01;;;;;;;4.30;3.10;;;;;;;13.65;54.72;100165.40;107643;1256;73867;-73
2023/11/02 09:34:33;;;;;;;4.00;2.70;;;;;;;13.73;54.50;100163.91;107815;1256;72926;-73
2023/11/02 09:37:01;;;;;;;4.30;3.00;;;;;;;13.80;54.60;100163.02;107835;1256;71302;-73
2023/11/02 09:39:29;;;;;;;5.50;3.40;;;;;;;13.86;54.40;100158.98;107810;1256;60467;-75
2023/11/02 09:41:56;;;;;;;5.40;3.20;;;;;;;13.92;54.58;100157.77;107812;1256;60447;-72
2023/11/02 09:44:24;;;;;;;5.80;3.20;;;;;;;14.04;54.52;100160.45;107799;1256;74578;-73
2023/11/02 09:46:54;;;;;;;5.10;3.10;;;;;;;14.16;54.30;100156.85;107665;1256;72808;-73
2023/11/02 09:49:21;;;;;;;5.00;3.90;;;;;;;14.26;54.03;100153.25;107755;1256;71290;-73
2023/11/02 09:51:48;;;;;;;7.10;3.50;;;;;;;14.32;53.74;100150.82;107644;1256;60399;-73
2023/11/02 09:54:15;;;;;;;5.80;3.80;;;;;;;14.34;53.55;100149.81;107813;1256;60435;-72
2023/11/02 09:56:42;;;;;;;4.50;3.30;;;;;;;14.38;53.58;100145.52;107873;1255;75013;-72
2023/11/02 09:59:09;;;;;;;4.70;3.30;;;;;;;14.44;53.82;100147.79;107662;1256;72733;-72
2023/11/02 10:01:36;;;;;;;6.10;4.00;;;;;;;14.45;53.61;100143.64;107527;1257;70830;-72
2023/11/02 10:04:03;;;;;;;7.10;4.30;;;;;;;14.40;53.60;100141.39;107654;1256;61569;-72
2023/11/02 10:06:30;;;;;;;6.70;4.10;;;;;;;14.37;53.92;100142.67;107810;1256;60470;-73
2023/11/02 10:08:58;;;;;;;6.50;4.20;;;;;;;14.36;54.09;100143.33;107615;1256;74747;-72
2023/11/02 10:11:25;;;;;;;6.10;3.90;;;;;;;14.36;54.16;100141.02;107681;1257;72653;-73
2023/11/02 10:13:53;;;;;;;4.90;3.70;;;;;;;14.39;54.24;100144.27;107772;1256;73902;-72
2023/11/02 10:16:24;;;;;;;5.40;4.00;;;;;;;14.46;54.68;100137.48;107596;1257;62269;-73
2023/11/02 10:18:51;;;;;;;6.00;3.60;;;;;;;14.60;54.85;100136.55;107583;1257;60547;-73
2023/11/02 10:21:21;;;;;;;5.30;3.20;;;;;;;14.73;54.62;100137.20;107654;1256;73978;-73
2023/11/02 10:23:55;;;;;;;6.50;3.60;;;;;;;14.81;54.15;100134.58;107869;1256;74396;-73
2023/11/02 10:26:28;;;;;;;5.70;3.50;;;;;;;14.83;53.88;100132.60;107717;1256;72737;-73
2023/11/02 10:28:56;;;;;;;6.70;3.50;;;;;;;14.80;53.70;100130.23;108977;1256;60309;-74
2023/11/02 10:31:30;;;;;;;4.60;3.60;;;;;;;14.77;53.95;100132.82;108815;1255;60007;-74
2023/11/02 10:34:00;;;;;;;5.90;3.60;;;;;;;14.77;54.19;100132.66;107713;1257;72697;-73
2023/11/02 10:36:29;;;;;;;6.00;3.70;;;;;;;14.81;54.19;100137.10;107626;1256;72800;-73
2023/11/02 10:38:56;;;;;;;5.70;3.60;;;;;;;14.89;54.21;100136.20;107768;1257;71613;-73
2023/11/02 10:41:23;;;;;;;6.70;3.70;;;;;;;14.98;54.11;100136.27;107741;1256;60451;-74
2023/11/02 10:43:50;;;;;;;6.00;3.40;;;;;;;15.04;54.03;100133.96;107570;1256;60451;-74
2023/11/02 10:46:17;;;;;;;6.40;3.60;;;;;;;15.09;53.97;100133.96;107600;1256;72072;-74
2023/11/02 10:48:46;;;;;;;5.90;3.20;;;;;;;15.13;53.58;100135.35;107892;1255;71645;-74
2023/11/02 10:51:18;;;;;;;5.30;3.00;;;;;;;15.18;53.59;100134.50;107790;1256;72345;-73
2023/11/02 10:54:14;;;;;;;5.50;3.40;;;;;;;15.30;53.56;100130.58;107742;1259;60295;-74
2023/11/02 10:56:42;;;;;;;5.20;3.10;;;;;;;15.45;53.43;100129.40;107739;1256;60362;-73
2023/11/02 10:59:12;;;;;;;5.10;3.20;;;;;;;15.57;53.39;100126.33;107669;1256;73972;-74
2023/11/02 11:01:39;;;;;;;5.80;2.80;;;;;;;15.71;53.04;100120.06;107497;1257;73083;-74
2023/11/02 11:04:10;;;;;;;5.00;3.40;;;;;;;15.88;52.71;100120.27;107630;1256;72821;-74
2023/11/02 11:06:39;;;;;;;5.70;3.20;;;;;;;16.02;52.21;100116.94;107627;1256;60499;-73
2023/11/02 11:09:06;;;;;;;6.00;3.50;;;;;;;16.06;51.68;100110.11;107511;1257;60394;-74
2023/11/02 11:11:33;;;;;;;6.40;4.20;;;;;;;16.05;51.39;100111.44;107693;1257;73660;-74
2023/11/02 11:14:01;;;;;;;5.80;3.50;;;;;;;16.07;51.53;100107.07;107821;1256;71459;-74
2023/11/02 11:16:30;;;;;;;4.90;3.40;;;;;;;16.14;51.31;100105.35;107810;1258;73016;-73
2023/11/02 11:18:57;;;;;;;5.00;3.40;;;;;;;16.15;50.70;100101.59;107706;1256;60321;-72
2023/11/02 11:21:24;;;;;;;5.90;3.50;;;;;;;16.16;50.50;100104.07;107757;1256;59407;-74
2023/11/02 11:23:53;;;;;;;5.70;3.30;;;;;;;16.16;50.05;100107.41;107701;1256;73971;-72
2023/11/02 11:26:20;;;;;;;5.10;3.10;;;;;;;16.16;50.16;100107.02;107541;1256;71405;-73
2023/11/02 11:28:47;;;;;;;5.00;2.90;;;;;;;16.17;50.36;100102.98;107647;1256;72553;-74
2023/11/02 11:31:57;;;;;;;4.60;3.30;;;;;;;16.22;50.35;100102.68;107761;1256;60420;-73
2023/11/02 11:34:23;;;;;;;4.60;3.10;;;;;;;16.18;49.90;100100.62;107914;1256;60387;-73
2023/11/02 11:36:50;;;;;;;5.40;3.00;;;;;;;16.07;50.01;100103.52;107763;1257;72682;-73
2023/11/02 11:39:37;;;;;;;4.50;3.00;;;;;;;15.89;50.12;100106.65;107878;1256;72774;-73
2023/11/02 11:42:04;;;;;;;3.90;3.10;;;;;;;15.73;50.51;100105.18;107740;1256;70310;-73
2023/11/02 11:44:31;;;;;;;4.80;2.90;;;;;;;15.63;50.83;100105.69;107769;1255;60400;-73
2023/11/02 11:47:01;;;;;;;5.30;3.10;;;;;;;15.55;50.88;100105.95;107764;1256;60435;-73
2023/11/02 11:49:43;;;;;;;5.60;3.10;;;;;;;15.49;50.96;100108.30;107730;1256;74127;-73
2023/11/02 11:52:20;;;;;;;4.50;3.20;;;;;;;15.42;51.12;100110.20;107746;1256;72522;-74
2023/11/02 11:54:47;;;;;;;5.20;3.50;;;;;;;15.33;51.19;100106.14;107771;1256;73472;-72
2023/11/02 11:57:53;;;;;;;4.40;2.50;;;;;;;15.26;51.49;100109.55;107746;1256;60762;-72
2023/11/02 12:00:21;;;;;;;5.50;3.50;;;;;;;15.18;51.61;100113.19;107828;1260;60857;-72
2023/11/02 12:02:54;;;;;;;4.60;3.10;;;;;;;15.13;51.71;100110.66;107780;1256;73134;-73
2023/11/02 12:05:44;;;;;;;5.50;3.10;;;;;;;15.09;51.71;100109.98;107664;1256;71898;-73
2023/11/02 12:08:11;;;;;;;4.40;3.10;;;;;;;15.03;51.98;100109.95;107726;1256;73164;-73
2023/11/02 12:10:45;;;;;;;5.30;3.20;;;;;;;14.97;52.13;100110.15;107610;1256;60278;-74
2023/11/02 12:13:12;;;;;;;5.80;3.30;;;;;;;14.89;52.30;100109.38;107604;1256;60323;-74
2023/11/02 12:15:53;;;;;;;4.10;2.90;;;;;;;14.82;52.47;100110.58;107818;1256;73977;-73
2023/11/02 12:18:30;;;;;;;4.50;3.00;;;;;;;14.76;52.61;100116.86;107768;1256;71885;-73
2023/11/02 12:20:58;;;;;;;4.30;2.90;;;;;;;14.70;52.55;100114.45;107722;1256;72953;-72
2023/11/02 12:23:39;;;;;;;4.10;2.40;;;;;;;14.68;52.81;100113.23;107858;1256;60310;-73
2023/11/02 12:26:08;;;;;;;4.60;2.90;;;;;;;14.67;52.89;100112.48;107754;1256;60251;-74
2023/11/02 12:28:56;;;;;;;5.00;2.90;;;;;;;14.69;53.06;100108.98;107796;1256;73758;-73
2023/11/02 12:31:30;;;;;;;5.40;2.90;;;;;;;14.73;53.22;100107.45;107851;1256;72889;-73
2023/11/02 12:33:58;;;;;;;6.70;3.40;;;;;;;14.81;53.28;100108.33;107650;1259;71992;-75
2023/11/02 12:36:28;;;;;;;4.20;3.00;;;;;;;14.92;53.31;100106.85;107718;1256;61212;-73
2023/11/02 12:38:55;;;;;;;5.20;3.30;;;;;;;15.04;53.26;100106.52;107756;1256;60798;-74
2023/11/02 12:41:29;;;;;;;4.70;3.00;;;;;;;15.16;52.72;100105.32;107864;1256;73778;-74
2023/11/02 12:44:03;;;;;;;3.50;2.50;;;;;;;15.32;52.49;100103.83;107803;1256;73459;-74
2023/11/02 12:46:32;;;;;;;4.90;3.10;;;;;;;15.44;52.08;100101.34;107593;1256;224380;-73
2023/11/02 12:49:11;;;;;;;4.40;2.90;;;;;;;15.58;51.62;100099.96;107772;1256;60412;-74
2023/11/02 12:51:38;;;;;;;4.60;2.90;;;;;;;15.70;50.79;100103.18;107806;1260;60327;-74
2023/11/02 12:54:09;;;;;;;5.40;2.60;;;;;;;15.78;49.97;100101.84;107758;1256;74080;-74
2023/11/02 12:56:36;;;;;;;4.90;2.50;;;;;;;15.82;49.51;100099.08;107730;1256;72953;-73
2023/11/02 12:59:06;;;;;;;3.90;2.60;;;;;;;15.82;49.59;100103.80;107788;1256;72872;-74
2023/11/02 13:01:55;;;;;;;4.30;2.40;;;;;;;15.79;49.76;100100.73;107846;1256;60779;-74
2023/11/02 13:04:29;;;;;;;5.30;2.60;;;;;;;15.76;49.91;100098.48;107608;1256;60337;-73
2023/11/02 13:06:57;;;;;;;3.50;2.40;;;;;;;15.74;50.15;100099.41;107641;1256;74362;-74
2023/11/02 13:09:26;;;;;;;4.40;2.30;;;;;;;15.73;50.28;100096.61;107694;1256;74755;-74
2023/11/02 13:11:54;;;;;;;4.50;2.40;;;;;;;15.73;49.86;100092.85;107826;1256;71572;-74
2023/11/02 13:14:23;;;;;;;4.00;2.60;;;;;;;15.72;50.02;100091.67;107733;1256;60451;-74
2023/11/02 13:16:51;;;;;;;4.60;2.30;;;;;;;15.75;50.09;100092.27;107808;1256;60404;-74
2023/11/02 13:19:18;;;;;;;6.10;2.20;;;;;;;15.76;49.89;100090.42;107756;1260;74175;-72
2023/11/02 13:21:47;;;;;;;3.70;2.10;;;;;;;15.78;49.96;100089.79;107693;1256;71655;-75
2023/11/02 13:24:14;;;;;;;4.00;2.20;;;;;;;15.78;50.09;100093.02;107902;1256;72509;-74
2023/11/02 13:26:41;;;;;;;5.20;2.40;;;;;;;15.74;50.05;100094.01;107776;1257;59432;-72
2023/11/02 13:29:10;;;;;;;3.30;2.20;;;;;;;15.69;50.04;100095.19;107800;1256;59578;-75
2023/11/02 13:31:37;;;;;;;3.50;2.10;;;;;;;15.62;50.24;100090.21;107813;1256;74126;-73
2023/11/02 13:34:05;;;;;;;3.50;2.20;;;;;;;15.51;50.44;100085.87;107795;1256;71423;-73
2023/11/02 13:36:33;;;;;;;3.80;2.30;;;;;;;15.39;50.62;100087.07;107973;1256;72650;-72
2023/11/02 13:39:05;;;;;;;4.30;2.40;;;;;;;15.29;51.08;100090.94;107840;1256;60132;-72
2023/11/02 13:41:34;;;;;;;3.60;2.40;;;;;;;15.16;51.42;100090.92;107804;1256;60355;-73
2023/11/02 13:44:01;;;;;;;3.80;2.30;;;;;;;15.03;51.82;100092.23;108304;1257;72726;-73
2023/11/02 13:46:31;;;;;;;3.90;2.20;;;;;;;14.92;52.25;100092.66;107890;1255;73029;-74
2023/11/02 13:49:03;;;;;;;4.70;2.50;;;;;;;14.81;52.62;100092.41;107856;1256;73686;-73
2023/11/02 13:51:32;;;;;;;4.40;2.60;;;;;;;14.70;53.04;100090.79;107765;1255;60778;-73
2023/11/02 13:53:59;;;;;;;4.60;2.70;;;;;;;14.61;53.52;100093.89;107865;1260;60435;-72
2023/11/02 13:56:28;;;;;;;7.20;2.50;;;;;;;14.52;53.81;100094.63;107872;1256;73894;-73
2023/11/02 13:58:55;;;;;;;4.40;2.60;;;;;;;14.44;54.19;100090.98;107813;1256;72736;-73
2023/11/02 14:01:21;;;;;;;5.40;2.70;;;;;;;14.36;54.73;100092.23;107813;1256;72487;-74
2023/11/02 14:03:49;;;;;;;5.90;3.30;;;;;;;14.28;55.03;100094.18;107512;1257;60477;-74
2023/11/02 14:06:16;;;;;;;7.30;4.10;;;;;;;14.21;55.26;100085.85;107616;1256;60444;-74
2023/11/02 14:08:43;;;;;;;7.50;4.50;;;;;;;14.15;55.50;100082.26;107848;1256;75232;-75
2023/11/02 14:11:12;;;;;;;6.10;3.90;;;;;;;14.10;55.70;100080.06;107844;1256;73064;-74
2023/11/02 14:13:44;;;;;;;6.30;3.80;;;;;;;14.05;55.88;100077.84;107774;1256;71016;-74
2023/11/02 14:16:11;;;;;;;8.70;4.50;;;;;;;13.99;56.16;100075.77;107882;1256;60907;-73
2023/11/02 14:18:38;;;;;;;6.30;3.90;;;;;;;13.89;56.45;100074.69;107597;1263;61131;-73
2023/11/02 14:21:06;;;;;;;7.10;4.50;;;;;;;13.83;56.74;100074.70;107839;1256;72028;-74
2023/11/02 14:23:33;;;;;;;7.30;4.70;;;;;;;13.76;56.91;100076.95;107794;1256;72592;-74